| time (UTC) | temp F | wind direction | speed knots | gust knots | rain 1hr in | rain 24hr in | rain mn in | humidity % | barometer mb |
| 20260504194831 | 75 | 0.0 | 0.0 | 0.00 | 0.00 | 0.00 | 27 | 1010.9 | |
| 20260504193829 | 74 | 0.0 | 0.0 | 0.00 | 0.00 | 0.00 | 28 | 1011.2 | |
| 20260504192825 | 74 | 0.0 | 0.0 | 0.00 | 0.00 | 0.00 | 28 | 1011.2 | |
| 20260504191821 | 74 | 0.0 | 0.0 | 0.00 | 0.00 | 0.00 | 27 | 1011.6 | |
| 20260504190819 | 74 | 0.0 | 0.0 | 0.00 | 0.00 | 0.00 | 27 | 1011.2 | |
| 20260504185818 | 74 | 0.0 | 0.0 | 0.00 | 0.00 | 0.00 | 28 | 1011.9 | |
| 20260504184817 | 73 | 0.0 | 0.0 | 0.00 | 0.00 | 0.00 | 29 | 1011.9 | |
| 20260504183815 | 73 | 0.0 | 0.0 | 0.00 | 0.00 | 0.00 | 29 | 1011.9 | |
| 20260504182810 | 73 | 0.0 | 0.0 | 0.00 | 0.00 | 0.00 | 30 | 1012.3 | |
| 20260504181810 | 73 | 0.0 | 0.0 | 0.00 | 0.00 | 0.00 | 32 | 1012.3 | |
| 20260504180807 | 72 | 0.0 | 0.0 | 0.00 | 0.00 | 0.00 | 31 | 1012.6 | |
| 20260504175802 | 72 | 0.0 | 0.0 | 0.00 | 0.00 | 0.00 | 32 | 1012.6 | |
| 20260504174803 | 72 | 0.0 | 0.0 | 0.00 | 0.00 | 0.00 | 34 | 1012.6 | |
| 20260504173802 | 71 | 0.0 | 0.0 | 0.00 | 0.00 | 0.00 | 34 | 1012.9 | |
| 20260504172802 | 71 | 0.0 | 0.0 | 0.00 | 0.00 | 0.00 | 34 | 1012.9 | |
| 20260504171800 | 71 | 0.0 | 0.0 | 0.00 | 0.00 | 0.00 | 36 | 1012.9 | |
| 20260504170755 | 70 | 0.0 | 0.0 | 0.00 | 0.00 | 0.00 | 34 | 1013.3 | |
| 20260504150733 | 64 | 0.0 | 0.0 | 0.00 | 0.00 | 0.00 | 48 | 1014.6 | |
| 20260504140731 | 61 | 0.0 | 0.0 | 0.00 | 0.00 | 0.00 | 53 | 1015.0 | |
| 20260504130719 | 57 | 0.0 | 0.0 | 0.00 | 0.00 | 0.00 | 58 | 1015.3 | |
| 20260504110652 | 49 | 0.0 | 0.0 | 0.00 | 0.00 | 0.00 | 67 | 1016.0 | |
| 20260504081621 | 47 | 0.0 | 0.0 | 0.00 | 0.00 | 0.00 | 58 | 1015.6 | |
| 20260504080620 | 47 | 0.0 | 0.0 | 0.00 | 0.00 | 0.00 | 58 | 1015.6 | |
| 20260504050548 | 48 | 0.0 | 0.0 | 0.00 | 0.00 | 0.00 | 50 | 1015.0 | |
| 20260504045548 | 48 | 0.0 | 0.0 | 0.00 | 0.00 | 0.00 | 49 | 1015.3 | |
| 20260504044546 | 48 | 0.0 | 0.0 | 0.00 | 0.00 | 0.00 | 48 | 1015.0 | |
| 20260504043546 | 48 | 0.0 | 0.0 | 0.00 | 0.00 | 0.00 | 48 | 1015.0 | |
| 20260504042546 | 48 | 0.0 | 0.0 | 0.00 | 0.00 | 0.00 | 48 | 1015.0 | |
| 20260504041545 | 49 | 0.0 | 0.0 | 0.00 | 0.00 | 0.00 | 47 | 1015.0 | |
| 20260504040544 | 49 | 0.0 | 0.0 | 0.00 | 0.00 | 0.00 | 46 | 1015.0 | |
| 20260504035543 | 49 | 0.0 | 0.0 | 0.00 | 0.00 | 0.00 | 45 | 1014.6 | |
| 20260504034538 | 49 | 0.0 | 0.0 | 0.00 | 0.00 | 0.00 | 44 | 1014.6 | |
| 20260504033538 | 50 | 0.0 | 0.0 | 0.00 | 0.00 | 0.00 | 43 | 1014.6 | |
| 20260504032538 | 51 | 0.0 | 0.0 | 0.00 | 0.00 | 0.00 | 42 | 1014.3 | |
| 20260504031537 | 51 | 0.0 | 0.0 | 0.00 | 0.00 | 0.00 | 42 | 1014.6 | |
| 20260504030536 | 51 | 0.0 | 0.0 | 0.00 | 0.00 | 0.00 | 41 | 1014.3 | |
| 20260504025535 | 52 | 0.0 | 0.0 | 0.00 | 0.00 | 0.00 | 40 | 1014.6 | |
| 20260504024535 | 52 | 0.0 | 0.0 | 0.00 | 0.00 | 0.00 | 39 | 1014.3 | |
| 20260504023534 | 52 | 0.0 | 0.0 | 0.00 | 0.00 | 0.00 | 38 | 1014.6 | |
| 20260504022532 | 52 | 0.0 | 0.0 | 0.00 | 0.00 | 0.00 | 38 | 1014.6 | |
| 20260504021532 | 53 | 0.0 | 0.0 | 0.00 | 0.00 | 0.00 | 37 | 1014.3 | |
| 20260504020531 | 53 | 0.0 | 0.0 | 0.00 | 0.00 | 0.00 | 37 | 1014.3 | |
| 20260504015530 | 53 | 0.0 | 0.0 | 0.00 | 0.00 | 0.00 | 36 | 1014.6 | |
| 20260504014528 | 53 | 0.0 | 0.0 | 0.00 | 0.00 | 0.00 | 35 | 1014.6 | |
| 20260504013523 | 53 | 0.0 | 0.0 | 0.00 | 0.00 | 0.00 | 34 | 1014.0 | |
| 20260504012523 | 53 | 0.0 | 0.0 | 0.00 | 0.00 | 0.00 | 34 | 1014.3 | |
| 20260504011523 | 53 | 0.0 | 0.0 | 0.00 | 0.00 | 0.00 | 33 | 1014.0 | |
| 20260504010521 | 54 | 0.0 | 0.0 | 0.00 | 0.00 | 0.00 | 31 | 1014.0 | |
| 20260504005520 | 54 | 0.0 | 0.0 | 0.00 | 0.00 | 0.00 | 30 | 1013.6 | |
| 20260504004516 | 55 | 0.0 | 0.0 | 0.00 | 0.00 | 0.00 | 29 | 1013.6 | |
| 20260504003514 | 55 | 0.0 | 0.0 | 0.00 | 0.00 | 0.00 | 28 | 1013.3 | |
| 20260504002514 | 56 | 0.0 | 0.0 | 0.00 | 0.00 | 0.00 | 27 | 1013.3 | |
| 20260504001515 | 56 | 0.0 | 0.0 | 0.00 | 0.00 | 0.00 | 26 | 1013.3 | |
| 20260504000514 | 57 | 0.0 | 0.0 | 0.00 | 0.00 | 0.00 | 26 | 1013.3 | |
| 20260503235515 | 57 | 0.0 | 0.0 | 0.00 | 0.00 | 0.00 | 22 | 1013.3 | |
| 20260503234515 | 58 | 0.0 | 0.0 | 0.00 | 0.00 | 0.00 | 21 | 1013.3 | |
| 20260503233509 | 58 | 0.0 | 0.0 | 0.00 | 0.00 | 0.00 | 19 | 1012.9 | |
| 20260503232508 | 59 | 0.0 | 0.0 | 0.00 | 0.00 | 0.00 | 19 | 1012.9 | |
| 20260503231503 | 59 | 0.0 | 0.0 | 0.00 | 0.00 | 0.00 | 18 | 1012.6 | |
| 20260503230502 | 59 | 0.0 | 0.0 | 0.00 | 0.00 | 0.00 | 19 | 1012.6 | |
| 20260503225503 | 60 | 0.0 | 0.0 | 0.00 | 0.00 | 0.00 | 18 | 1012.9 | |
| 20260503224501 | 60 | 0.0 | 0.0 | 0.00 | 0.00 | 0.00 | 17 | 1012.6 | |
| 20260503223457 | 60 | 0.0 | 0.0 | 0.00 | 0.00 | 0.00 | 17 | 1012.6 | |
| 20260503222456 | 61 | 0.0 | 0.0 | 0.00 | 0.00 | 0.00 | 12 | 1012.6 | |
| 20260503221452 | 62 | 0.0 | 0.0 | 0.00 | 0.00 | 0.00 | 12 | 1012.3 | |
| 20260503220451 | 64 | 0.0 | 0.0 | 0.00 | 0.00 | 0.00 | 10 | 1012.6 | |
| 20260503215451 | 65 | 0.0 | 0.0 | 0.00 | 0.00 | 0.00 | 10 | 1012.9 | |
| 20260503214446 | 68 | 0.0 | 0.0 | 0.00 | 0.00 | 0.00 | 10 | 1012.6 | |
| 20260503213442 | 68 | 0.0 | 0.0 | 0.00 | 0.00 | 0.00 | 15 | 1012.6 | |
| 20260503212441 | 67 | 0.0 | 0.0 | 0.00 | 0.00 | 0.00 | 15 | 1012.6 | |
| 20260503211441 | 70 | 0.0 | 0.0 | 0.00 | 0.00 | 0.00 | 15 | 1012.6 | |
| 20260503210439 | 68 | 0.0 | 0.0 | 0.00 | 0.00 | 0.00 | 10 | 1012.6 | |
| 20260503205437 | 66 | 0.0 | 0.0 | 0.00 | 0.00 | 0.00 | 10 | 1012.6 | |
| 20260503204436 | 63 | 0.0 | 0.0 | 0.00 | 0.00 | 0.00 | 22 | 1012.9 | |
| 20260503203437 | 63 | 0.0 | 0.0 | 0.00 | 0.00 | 0.00 | 20 | 1012.9 | |
| 20260503202431 | 60 | 0.0 | 0.0 | 0.00 | 0.00 | 0.00 | 24 | 1012.9 | |
| 20260503201426 | 59 | 0.0 | 0.0 | 0.00 | 0.00 | 0.00 | 25 | 1012.6 | |
| 20260503200426 | 60 | 0.0 | 0.0 | 0.00 | 0.00 | 0.00 | 25 | 1012.9 | |
| 20260503195420 | 59 | 0.0 | 0.0 | 0.00 | 0.00 | 0.00 | 25 | 1012.9 |